Login to view Products
 
Tuesday, July 23, 2019 (12:22 UTC)
Fujairah International Airport
ICAO: OMFJ
IATA: FJR
  • METAR OMFJ 231200Z 09008KT 050V130 7000 FEW020 34/27 Q0997 A2946=
  • TAF OMFJ 231055Z 2312/2418 13006KT 7000 FEW020 BECMG 2315/2317 VRB03KT BECMG 2323/2401 4000 HZ SCT016 BECMG 2404/2406 09008KT 6000 NSC=
D:\Input Parser\Destinations\Final\10\OMFJL12181055824138650.txt
1